sensor_id;sensor_type;location;lat;lon;timestamp;P1;P2;P0
65383;PMS5003;51986;52.788;41.368;2023-07-20T00:00:06;38.00;32.00;25.00
65383;PMS5003;51986;52.788;41.368;2023-07-20T00:02:51;36.00;30.50;24.00
65383;PMS5003;51986;52.788;41.368;2023-07-20T00:05:18;38.00;32.00;25.00
65383;PMS5003;51986;52.788;41.368;2023-07-20T00:07:45;36.00;29.00;24.00
65383;PMS5003;51986;52.788;41.368;2023-07-20T00:10:12;36.00;30.00;24.00
65383;PMS5003;51986;52.788;41.368;2023-07-20T00:12:39;37.00;32.00;25.00
65383;PMS5003;51986;52.788;41.368;2023-07-20T00:15:06;35.00;30.00;24.00
65383;PMS5003;51986;52.788;41.368;2023-07-20T00:17:33;35.00;30.00;24.00
65383;PMS5003;51986;52.788;41.368;2023-07-20T00:20:00;37.00;31.00;25.00
65383;PMS5003;51986;52.788;41.368;2023-07-20T00:22:27;35.00;29.50;24.00
65383;PMS5003;51986;52.788;41.368;2023-07-20T00:24:54;35.00;30.00;23.50
65383;PMS5003;51986;52.788;41.368;2023-07-20T00:27:21;35.00;29.00;24.00
65383;PMS5003;51986;52.788;41.368;2023-07-20T00:29:48;35.00;30.00;24.00
65383;PMS5003;51986;52.788;41.368;2023-07-20T00:32:15;37.00;32.00;26.00
65383;PMS5003;51986;52.788;41.368;2023-07-20T00:34:42;35.25;30.25;24.00
65383;PMS5003;51986;52.788;41.368;2023-07-20T00:37:09;35.00;30.00;24.00
65383;PMS5003;51986;52.788;41.368;2023-07-20T00:39:37;35.00;30.00;24.00
65383;PMS5003;51986;52.788;41.368;2023-07-20T00:42:04;35.50;30.50;25.00
65383;PMS5003;51986;52.788;41.368;2023-07-20T00:44:31;35.00;30.00;23.75
65383;PMS5003;51986;52.788;41.368;2023-07-20T00:46:58;37.00;32.00;25.00
65383;PMS5003;51986;52.788;41.368;2023-07-20T00:49:27;36.50;31.50;25.00
65383;PMS5003;51986;52.788;41.368;2023-07-20T00:51:54;35.00;30.00;24.00
65383;PMS5003;51986;52.788;41.368;2023-07-20T00:54:21;37.00;31.00;25.00
65383;PMS5003;51986;52.788;41.368;2023-07-20T00:56:48;34.00;29.00;23.00
65383;PMS5003;51986;52.788;41.368;2023-07-20T00:59:17;36.00;30.00;24.00
65383;PMS5003;51986;52.788;41.368;2023-07-20T01:01:44;36.00;30.00;24.00
65383;PMS5003;51986;52.788;41.368;2023-07-20T01:04:11;34.75;29.75;24.00
65383;PMS5003;51986;52.788;41.368;2023-07-20T01:06:57;37.00;32.00;25.00
65383;PMS5003;51986;52.788;41.368;2023-07-20T01:10:12;36.00;31.00;24.50
65383;PMS5003;51986;52.788;41.368;2023-07-20T01:12:30;35.50;30.00;24.00
65383;PMS5003;51986;52.788;41.368;2023-07-20T01:15:02;36.00;30.50;24.00
65383;PMS5003;51986;52.788;41.368;2023-07-20T01:17:29;36.00;30.00;24.00
65383;PMS5003;51986;52.788;41.368;2023-07-20T01:19:57;38.00;32.00;26.00
65383;PMS5003;51986;52.788;41.368;2023-07-20T01:31:30;35.00;30.25;24.00
65383;PMS5003;51986;52.788;41.368;2023-07-20T01:33:59;36.00;31.00;24.00
65383;PMS5003;51986;52.788;41.368;2023-07-20T01:36:29;35.00;30.00;23.50
65383;PMS5003;51986;52.788;41.368;2023-07-20T01:38:59;34.00;29.00;24.00
65383;PMS5003;51986;52.788;41.368;2023-07-20T01:41:31;38.00;33.00;27.00
65383;PMS5003;51986;52.788;41.368;2023-07-20T01:43:58;37.00;32.00;26.00
65383;PMS5003;51986;52.788;41.368;2023-07-20T01:46:25;35.00;30.00;24.00
65383;PMS5003;51986;52.788;41.368;2023-07-20T01:48:53;35.50;30.50;23.50
65383;PMS5003;51986;52.788;41.368;2023-07-20T01:51:21;35.25;30.25;24.00
65383;PMS5003;51986;52.788;41.368;2023-07-20T01:53:48;36.00;30.50;25.00
65383;PMS5003;51986;52.788;41.368;2023-07-20T01:56:15;35.50;30.00;24.00
65383;PMS5003;51986;52.788;41.368;2023-07-20T01:58:42;36.00;30.00;24.00
65383;PMS5003;51986;52.788;41.368;2023-07-20T02:01:11;35.00;30.00;24.00
65383;PMS5003;51986;52.788;41.368;2023-07-20T02:03:38;36.50;31.00;24.75
65383;PMS5003;51986;52.788;41.368;2023-07-20T02:06:05;34.00;29.00;23.00
65383;PMS5003;51986;52.788;41.368;2023-07-20T02:08:32;36.00;30.00;24.00
65383;PMS5003;51986;52.788;41.368;2023-07-20T02:11:01;38.00;32.00;25.00
65383;PMS5003;51986;52.788;41.368;2023-07-20T02:13:29;36.00;30.50;24.25
65383;PMS5003;51986;52.788;41.368;2023-07-20T02:15:58;36.00;31.00;24.00
65383;PMS5003;51986;52.788;41.368;2023-07-20T02:18:25;35.25;30.00;23.50
65383;PMS5003;51986;52.788;41.368;2023-07-20T02:20:55;38.00;32.00;25.00
65383;PMS5003;51986;52.788;41.368;2023-07-20T02:23:22;35.50;30.00;23.50
65383;PMS5003;51986;52.788;41.368;2023-07-20T02:25:49;35.00;30.00;23.50
65383;PMS5003;51986;52.788;41.368;2023-07-20T02:28:16;35.00;30.00;24.00
65383;PMS5003;51986;52.788;41.368;2023-07-20T02:30:46;35.75;30.25;24.00
65383;PMS5003;51986;52.788;41.368;2023-07-20T02:33:13;39.00;33.00;25.00
65383;PMS5003;51986;52.788;41.368;2023-07-20T02:35:40;36.00;30.00;24.00
65383;PMS5003;51986;52.788;41.368;2023-07-20T02:38:07;36.00;30.75;24.00
65383;PMS5003;51986;52.788;41.368;2023-07-20T02:40:34;36.00;30.00;24.00
65383;PMS5003;51986;52.788;41.368;2023-07-20T02:43:01;37.00;32.00;25.00
65383;PMS5003;51986;52.788;41.368;2023-07-20T02:45:28;35.00;30.00;24.00
65383;PMS5003;51986;52.788;41.368;2023-07-20T02:47:56;35.50;30.00;23.50
65383;PMS5003;51986;52.788;41.368;2023-07-20T02:50:23;37.00;32.00;25.50
65383;PMS5003;51986;52.788;41.368;2023-07-20T02:52:50;38.00;33.00;26.00
65383;PMS5003;51986;52.788;41.368;2023-07-20T02:55:20;37.00;32.00;26.00
65383;PMS5003;51986;52.788;41.368;2023-07-20T02:57:50;35.00;30.00;24.00
65383;PMS5003;51986;52.788;41.368;2023-07-20T03:00:17;39.00;32.00;26.00
65383;PMS5003;51986;52.788;41.368;2023-07-20T03:02:44;37.00;31.00;25.00
65383;PMS5003;51986;52.788;41.368;2023-07-20T03:05:12;38.00;32.00;26.00
65383;PMS5003;51986;52.788;41.368;2023-07-20T03:07:40;39.00;33.00;27.00
65383;PMS5003;51986;52.788;41.368;2023-07-20T03:10:07;40.00;34.00;28.00
65383;PMS5003;51986;52.788;41.368;2023-07-20T03:12:36;40.00;34.00;27.50
65383;PMS5003;51986;52.788;41.368;2023-07-20T03:15:03;39.00;33.00;28.00
65383;PMS5003;51986;52.788;41.368;2023-07-20T03:17:31;40.00;34.00;28.00
65383;PMS5003;51986;52.788;41.368;2023-07-20T03:19:58;41.00;34.00;27.00
65383;PMS5003;51986;52.788;41.368;2023-07-20T03:22:28;40.00;34.00;28.00
65383;PMS5003;51986;52.788;41.368;2023-07-20T03:24:55;39.00;33.50;26.50
65383;PMS5003;51986;52.788;41.368;2023-07-20T03:27:22;43.00;36.00;29.00
65383;PMS5003;51986;52.788;41.368;2023-07-20T03:29:50;41.00;34.00;27.50
65383;PMS5003;51986;52.788;41.368;2023-07-20T03:32:17;40.00;34.00;27.50
65383;PMS5003;51986;52.788;41.368;2023-07-20T03:34:45;43.00;36.75;29.00
65383;PMS5003;51986;52.788;41.368;2023-07-20T03:37:13;40.00;34.00;28.00
65383;PMS5003;51986;52.788;41.368;2023-07-20T03:39:40;44.50;37.00;30.00
65383;PMS5003;51986;52.788;41.368;2023-07-20T03:42:07;41.00;34.00;28.00
65383;PMS5003;51986;52.788;41.368;2023-07-20T03:44:34;41.00;34.50;28.00
65383;PMS5003;51986;52.788;41.368;2023-07-20T03:47:02;40.50;34.00;28.00
65383;PMS5003;51986;52.788;41.368;2023-07-20T03:49:30;41.50;34.00;28.00
65383;PMS5003;51986;52.788;41.368;2023-07-20T03:51:57;41.00;34.00;28.00
65383;PMS5003;51986;52.788;41.368;2023-07-20T03:54:24;40.00;35.00;27.00
65383;PMS5003;51986;52.788;41.368;2023-07-20T03:56:51;41.50;34.00;28.00
65383;PMS5003;51986;52.788;41.368;2023-07-20T03:59:18;41.25;34.50;28.00
65383;PMS5003;51986;52.788;41.368;2023-07-20T04:01:45;44.25;37.25;31.00
65383;PMS5003;51986;52.788;41.368;2023-07-20T04:04:13;42.50;35.50;29.00
65383;PMS5003;51986;52.788;41.368;2023-07-20T04:06:42;44.00;37.50;29.75
65383;PMS5003;51986;52.788;41.368;2023-07-20T04:09:11;41.00;35.00;28.00
65383;PMS5003;51986;52.788;41.368;2023-07-20T04:11:38;40.00;34.50;28.00
65383;PMS5003;51986;52.788;41.368;2023-07-20T04:14:06;41.00;35.00;28.50
65383;PMS5003;51986;52.788;41.368;2023-07-20T04:16:33;41.50;34.00;28.00
65383;PMS5003;51986;52.788;41.368;2023-07-20T04:19:00;41.00;35.00;28.00
65383;PMS5003;51986;52.788;41.368;2023-07-20T04:21:27;41.00;35.00;28.00
65383;PMS5003;51986;52.788;41.368;2023-07-20T04:23:55;41.00;35.00;27.50
65383;PMS5003;51986;52.788;41.368;2023-07-20T04:26:23;41.00;35.00;28.00
65383;PMS5003;51986;52.788;41.368;2023-07-20T04:28:50;42.00;35.00;28.00
65383;PMS5003;51986;52.788;41.368;2023-07-20T04:31:30;42.00;35.50;28.00
65383;PMS5003;51986;52.788;41.368;2023-07-20T04:33:57;41.00;35.00;27.50
65383;PMS5003;51986;52.788;41.368;2023-07-20T04:36:24;41.00;34.50;27.00
65383;PMS5003;51986;52.788;41.368;2023-07-20T04:38:53;41.00;34.50;26.50
65383;PMS5003;51986;52.788;41.368;2023-07-20T04:41:21;40.00;35.00;27.50
65383;PMS5003;51986;52.788;41.368;2023-07-20T04:43:50;40.00;34.00;27.00
65383;PMS5003;51986;52.788;41.368;2023-07-20T04:46:28;41.00;34.50;28.00
65383;PMS5003;51986;52.788;41.368;2023-07-20T04:48:57;44.00;37.00;30.00
65383;PMS5003;51986;52.788;41.368;2023-07-20T04:51:27;41.00;34.75;29.00
65383;PMS5003;51986;52.788;41.368;2023-07-20T04:53:54;41.00;34.00;28.50
65383;PMS5003;51986;52.788;41.368;2023-07-20T04:56:22;40.50;34.00;28.00
65383;PMS5003;51986;52.788;41.368;2023-07-20T04:58:52;40.00;34.00;28.00
65383;PMS5003;51986;52.788;41.368;2023-07-20T05:01:19;40.00;34.00;28.00
65383;PMS5003;51986;52.788;41.368;2023-07-20T05:03:46;39.50;33.00;28.00
65383;PMS5003;51986;52.788;41.368;2023-07-20T05:06:13;40.50;34.00;27.00
65383;PMS5003;51986;52.788;41.368;2023-07-20T05:08:41;40.00;34.00;27.00
65383;PMS5003;51986;52.788;41.368;2023-07-20T05:11:08;41.00;34.00;27.50
65383;PMS5003;51986;52.788;41.368;2023-07-20T05:13:36;43.00;36.00;30.00
65383;PMS5003;51986;52.788;41.368;2023-07-20T05:16:03;40.50;34.00;27.50
65383;PMS5003;51986;52.788;41.368;2023-07-20T05:18:32;40.00;34.00;28.00
65383;PMS5003;51986;52.788;41.368;2023-07-20T05:20:59;40.00;33.00;27.00
65383;PMS5003;51986;52.788;41.368;2023-07-20T05:23:26;40.00;33.50;27.00
65383;PMS5003;51986;52.788;41.368;2023-07-20T05:25:57;39.50;33.00;26.50
65383;PMS5003;51986;52.788;41.368;2023-07-20T05:28:26;43.00;35.75;28.25
65383;PMS5003;51986;52.788;41.368;2023-07-20T05:30:53;40.00;33.00;27.00
65383;PMS5003;51986;52.788;41.368;2023-07-20T05:33:20;40.00;33.00;27.00
65383;PMS5003;51986;52.788;41.368;2023-07-20T05:35:47;43.00;36.00;29.00
65383;PMS5003;51986;52.788;41.368;2023-07-20T05:38:15;40.00;33.00;27.00
65383;PMS5003;51986;52.788;41.368;2023-07-20T05:40:43;38.50;33.00;27.00
65383;PMS5003;51986;52.788;41.368;2023-07-20T05:43:11;38.00;32.00;26.00
65383;PMS5003;51986;52.788;41.368;2023-07-20T05:45:41;39.00;33.00;26.00
65383;PMS5003;51986;52.788;41.368;2023-07-20T05:48:09;40.00;35.00;27.00
65383;PMS5003;51986;52.788;41.368;2023-07-20T05:50:36;38.00;33.00;26.00
65383;PMS5003;51986;52.788;41.368;2023-07-20T05:53:04;38.00;33.00;26.00
65383;PMS5003;51986;52.788;41.368;2023-07-20T05:55:31;42.00;35.00;28.75
65383;PMS5003;51986;52.788;41.368;2023-07-20T05:57:58;39.00;33.00;26.75
65383;PMS5003;51986;52.788;41.368;2023-07-20T06:00:25;39.00;33.00;27.00
65383;PMS5003;51986;52.788;41.368;2023-07-20T06:02:53;39.50;33.50;27.00
65383;PMS5003;51986;52.788;41.368;2023-07-20T06:05:21;39.25;33.00;27.00
65383;PMS5003;51986;52.788;41.368;2023-07-20T06:07:49;40.00;33.50;28.00
65383;PMS5003;51986;52.788;41.368;2023-07-20T06:10:18;39.00;33.00;27.00
65383;PMS5003;51986;52.788;41.368;2023-07-20T06:12:45;41.00;35.00;29.00
65383;PMS5003;51986;52.788;41.368;2023-07-20T06:15:25;40.00;34.00;27.00
65383;PMS5003;51986;52.788;41.368;2023-07-20T06:17:57;39.00;33.00;27.00
65383;PMS5003;51986;52.788;41.368;2023-07-20T06:20:25;39.75;33.00;27.00
65383;PMS5003;51986;52.788;41.368;2023-07-20T06:22:52;42.00;35.00;29.00
65383;PMS5003;51986;52.788;41.368;2023-07-20T06:25:19;39.00;33.00;26.00
65383;PMS5003;51986;52.788;41.368;2023-07-20T06:27:46;38.00;32.00;26.00
65383;PMS5003;51986;52.788;41.368;2023-07-20T06:30:15;38.00;32.00;26.00
65383;PMS5003;51986;52.788;41.368;2023-07-20T06:32:42;41.00;35.00;29.00
65383;PMS5003;51986;52.788;41.368;2023-07-20T06:35:09;39.00;33.00;27.00
65383;PMS5003;51986;52.788;41.368;2023-07-20T06:37:36;39.00;33.00;27.00
65383;PMS5003;51986;52.788;41.368;2023-07-20T06:40:04;39.00;33.00;27.00
65383;PMS5003;51986;52.788;41.368;2023-07-20T06:42:34;38.00;33.00;26.00
65383;PMS5003;51986;52.788;41.368;2023-07-20T06:45:04;38.00;32.00;26.00
65383;PMS5003;51986;52.788;41.368;2023-07-20T06:47:31;39.00;34.00;27.00
65383;PMS5003;51986;52.788;41.368;2023-07-20T06:49:58;37.00;31.00;25.00
65383;PMS5003;51986;52.788;41.368;2023-07-20T06:52:25;37.00;32.00;26.25
65383;PMS5003;51986;52.788;41.368;2023-07-20T06:54:52;41.00;35.00;28.00
65383;PMS5003;51986;52.788;41.368;2023-07-20T06:57:19;39.00;33.00;27.00
65383;PMS5003;51986;52.788;41.368;2023-07-20T06:59:51;38.00;33.00;26.00
65383;PMS5003;51986;52.788;41.368;2023-07-20T07:02:18;39.50;33.00;27.50
65383;PMS5003;51986;52.788;41.368;2023-07-20T07:04:50;39.00;33.00;28.00
65383;PMS5003;51986;52.788;41.368;2023-07-20T07:07:26;38.50;33.00;27.00
65383;PMS5003;51986;52.788;41.368;2023-07-20T07:09:53;40.00;34.00;28.00
65383;PMS5003;51986;52.788;41.368;2023-07-20T07:12:21;41.00;36.00;28.00
65383;PMS5003;51986;52.788;41.368;2023-07-20T07:14:48;38.25;33.00;27.00
65383;PMS5003;51986;52.788;41.368;2023-07-20T07:17:15;38.00;32.00;26.00
65383;PMS5003;51986;52.788;41.368;2023-07-20T07:19:45;38.00;33.00;26.75
65383;PMS5003;51986;52.788;41.368;2023-07-20T07:22:14;38.00;33.00;27.00
65383;PMS5003;51986;52.788;41.368;2023-07-20T07:24:42;42.00;35.00;28.00
65383;PMS5003;51986;52.788;41.368;2023-07-20T07:27:09;39.00;33.00;26.00
65383;PMS5003;51986;52.788;41.368;2023-07-20T07:29:36;39.00;32.50;26.00
65383;PMS5003;51986;52.788;41.368;2023-07-20T07:32:03;40.00;33.25;27.00
65383;PMS5003;51986;52.788;41.368;2023-07-20T07:34:32;39.00;33.00;27.00
65383;PMS5003;51986;52.788;41.368;2023-07-20T07:36:59;42.00;35.00;29.00
65383;PMS5003;51986;52.788;41.368;2023-07-20T07:39:26;39.00;33.00;27.00
65383;PMS5003;51986;52.788;41.368;2023-07-20T07:42:01;39.00;33.00;27.00
65383;PMS5003;51986;52.788;41.368;2023-07-20T07:44:28;41.50;35.00;28.00
65383;PMS5003;51986;52.788;41.368;2023-07-20T07:46:55;39.00;33.00;27.00
65383;PMS5003;51986;52.788;41.368;2023-07-20T07:49:22;42.00;35.00;28.00
65383;PMS5003;51986;52.788;41.368;2023-07-20T07:51:49;38.00;33.00;26.00
65383;PMS5003;51986;52.788;41.368;2023-07-20T07:54:16;40.00;35.00;27.00
65383;PMS5003;51986;52.788;41.368;2023-07-20T07:56:43;39.00;33.00;27.00
65383;PMS5003;51986;52.788;41.368;2023-07-20T07:59:10;41.00;35.00;28.00
65383;PMS5003;51986;52.788;41.368;2023-07-20T08:01:37;38.00;33.00;26.00
65383;PMS5003;51986;52.788;41.368;2023-07-20T08:04:05;39.00;33.00;26.00
65383;PMS5003;51986;52.788;41.368;2023-07-20T08:06:32;39.00;33.00;26.75
65383;PMS5003;51986;52.788;41.368;2023-07-20T08:08:59;39.50;33.00;27.00
65383;PMS5003;51986;52.788;41.368;2023-07-20T08:11:26;41.00;35.00;28.00
65383;PMS5003;51986;52.788;41.368;2023-07-20T08:13:53;38.00;33.00;27.00
65383;PMS5003;51986;52.788;41.368;2023-07-20T08:16:20;38.50;32.00;27.00
65383;PMS5003;51986;52.788;41.368;2023-07-20T08:18:48;38.50;32.50;27.00
65383;PMS5003;51986;52.788;41.368;2023-07-20T08:21:16;38.50;32.00;27.00
65383;PMS5003;51986;52.788;41.368;2023-07-20T08:23:43;40.00;35.00;29.00
65383;PMS5003;51986;52.788;41.368;2023-07-20T08:26:10;38.00;33.00;27.00
65383;PMS5003;51986;52.788;41.368;2023-07-20T08:28:37;39.00;33.00;26.25
65383;PMS5003;51986;52.788;41.368;2023-07-20T08:31:05;40.00;34.00;27.00
65383;PMS5003;51986;52.788;41.368;2023-07-20T08:33:33;39.00;33.00;27.00
65383;PMS5003;51986;52.788;41.368;2023-07-20T08:36:00;39.50;33.50;26.50
65383;PMS5003;51986;52.788;41.368;2023-07-20T08:38:28;39.00;33.00;26.00
65383;PMS5003;51986;52.788;41.368;2023-07-20T08:40:55;40.00;35.00;28.00
65383;PMS5003;51986;52.788;41.368;2023-07-20T08:43:22;38.00;32.50;26.00
65383;PMS5003;51986;52.788;41.368;2023-07-20T08:45:50;38.00;32.50;26.00
65383;PMS5003;51986;52.788;41.368;2023-07-20T08:48:18;38.00;32.75;26.00
65383;PMS5003;51986;52.788;41.368;2023-07-20T08:50:49;41.50;36.00;29.00
65383;PMS5003;51986;52.788;41.368;2023-07-20T08:53:17;38.00;32.50;26.50
65383;PMS5003;51986;52.788;41.368;2023-07-20T08:55:45;38.00;33.00;26.00
65383;PMS5003;51986;52.788;41.368;2023-07-20T08:58:12;41.50;35.00;28.00
65383;PMS5003;51986;52.788;41.368;2023-07-20T09:00:39;41.00;35.00;28.00
65383;PMS5003;51986;52.788;41.368;2023-07-20T09:03:12;37.00;32.00;26.00
65383;PMS5003;51986;52.788;41.368;2023-07-20T09:05:41;40.00;34.00;27.00
65383;PMS5003;51986;52.788;41.368;2023-07-20T09:08:09;37.00;31.00;25.00
65383;PMS5003;51986;52.788;41.368;2023-07-20T09:10:36;40.75;35.00;28.00
65383;PMS5003;51986;52.788;41.368;2023-07-20T09:13:03;39.00;33.00;26.00
65383;PMS5003;51986;52.788;41.368;2023-07-20T09:15:30;38.00;32.50;27.00
65383;PMS5003;51986;52.788;41.368;2023-07-20T09:17:58;38.00;33.00;26.50
65383;PMS5003;51986;52.788;41.368;2023-07-20T09:20:30;37.00;32.00;26.00
65383;PMS5003;51986;52.788;41.368;2023-07-20T09:22:58;40.00;34.00;27.00
65383;PMS5003;51986;52.788;41.368;2023-07-20T09:25:27;38.00;32.25;27.00
65383;PMS5003;51986;52.788;41.368;2023-07-20T09:27:57;41.00;35.00;29.00
65383;PMS5003;51986;52.788;41.368;2023-07-20T09:30:28;39.00;33.00;27.00
65383;PMS5003;51986;52.788;41.368;2023-07-20T09:32:58;41.75;36.00;28.00
65383;PMS5003;51986;52.788;41.368;2023-07-20T09:35:25;39.00;33.00;27.00
65383;PMS5003;51986;52.788;41.368;2023-07-20T09:38:07;40.00;33.00;27.00
65383;PMS5003;51986;52.788;41.368;2023-07-20T09:40:37;43.00;36.00;29.00
65383;PMS5003;51986;52.788;41.368;2023-07-20T09:43:08;39.00;32.50;26.50
65383;PMS5003;51986;52.788;41.368;2023-07-20T09:45:39;41.00;35.00;28.00
65383;PMS5003;51986;52.788;41.368;2023-07-20T09:48:11;38.00;32.00;25.50
65383;PMS5003;51986;52.788;41.368;2023-07-20T09:50:48;37.00;32.00;26.00
65383;PMS5003;51986;52.788;41.368;2023-07-20T09:53:17;39.00;33.00;27.00
65383;PMS5003;51986;52.788;41.368;2023-07-20T09:55:45;40.00;33.00;27.00
65383;PMS5003;51986;52.788;41.368;2023-07-20T09:58:16;39.00;33.00;27.00
65383;PMS5003;51986;52.788;41.368;2023-07-20T10:00:44;39.75;33.00;28.00
65383;PMS5003;51986;52.788;41.368;2023-07-20T10:03:16;39.00;33.00;27.00
65383;PMS5003;51986;52.788;41.368;2023-07-20T10:05:52;39.00;33.00;27.00
65383;PMS5003;51986;52.788;41.368;2023-07-20T10:08:26;39.00;33.00;27.00
65383;PMS5003;51986;52.788;41.368;2023-07-20T10:10:59;39.50;33.00;27.00
65383;PMS5003;51986;52.788;41.368;2023-07-20T10:13:29;39.00;33.00;27.00
65383;PMS5003;51986;52.788;41.368;2023-07-20T10:16:03;39.00;32.00;27.00
65383;PMS5003;51986;52.788;41.368;2023-07-20T10:21:18;41.50;35.00;29.00
65383;PMS5003;51986;52.788;41.368;2023-07-20T10:23:50;39.00;33.00;27.00
65383;PMS5003;51986;52.788;41.368;2023-07-20T10:26:20;40.25;34.00;28.00
65383;PMS5003;51986;52.788;41.368;2023-07-20T10:28:49;42.00;36.00;29.00
65383;PMS5003;51986;52.788;41.368;2023-07-20T10:31:16;42.00;36.00;28.00
65383;PMS5003;51986;52.788;41.368;2023-07-20T10:33:44;39.00;33.00;26.00
65383;PMS5003;51986;52.788;41.368;2023-07-20T10:36:12;39.50;33.00;27.00
65383;PMS5003;51986;52.788;41.368;2023-07-20T10:41:22;39.00;33.00;27.50
65383;PMS5003;51986;52.788;41.368;2023-07-20T10:43:58;39.75;33.00;27.00
65383;PMS5003;51986;52.788;41.368;2023-07-20T10:46:34;38.00;33.00;27.00
65383;PMS5003;51986;52.788;41.368;2023-07-20T10:49:05;38.00;32.50;27.00
65383;PMS5003;51986;52.788;41.368;2023-07-20T10:51:40;39.00;33.00;27.00
65383;PMS5003;51986;52.788;41.368;2023-07-20T10:56:46;38.50;33.00;26.50
65383;PMS5003;51986;52.788;41.368;2023-07-20T10:59:23;42.00;35.00;29.00
65383;PMS5003;51986;52.788;41.368;2023-07-20T11:02:07;42.00;36.00;28.00
65383;PMS5003;51986;52.788;41.368;2023-07-20T11:04:41;39.00;34.00;27.00
65383;PMS5003;51986;52.788;41.368;2023-07-20T11:07:10;39.00;33.00;27.00
65383;PMS5003;51986;52.788;41.368;2023-07-20T11:09:37;42.00;36.00;29.00
65383;PMS5003;51986;52.788;41.368;2023-07-20T11:12:12;39.50;33.00;27.00
65383;PMS5003;51986;52.788;41.368;2023-07-20T11:15:03;39.00;33.00;27.00
65383;PMS5003;51986;52.788;41.368;2023-07-20T11:17:29;41.75;35.50;29.00
65383;PMS5003;51986;52.788;41.368;2023-07-20T11:20:01;39.25;33.25;27.00
65383;PMS5003;51986;52.788;41.368;2023-07-20T11:22:32;40.00;34.00;27.00
65383;PMS5003;51986;52.788;41.368;2023-07-20T11:25:00;39.50;33.00;27.00
65383;PMS5003;51986;52.788;41.368;2023-07-20T11:27:27;39.00;33.00;26.00
65383;PMS5003;51986;52.788;41.368;2023-07-20T11:29:54;38.00;32.50;26.00
65383;PMS5003;51986;52.788;41.368;2023-07-20T11:32:24;38.00;32.50;26.00
65383;PMS5003;51986;52.788;41.368;2023-07-20T11:34:52;41.00;35.00;28.50
65383;PMS5003;51986;52.788;41.368;2023-07-20T11:37:19;39.50;32.00;26.00
65383;PMS5003;51986;52.788;41.368;2023-07-20T11:39:46;42.00;35.00;28.00
65383;PMS5003;51986;52.788;41.368;2023-07-20T11:42:13;39.00;33.00;26.50
65383;PMS5003;51986;52.788;41.368;2023-07-20T11:45:03;40.00;33.00;26.00
65383;PMS5003;51986;52.788;41.368;2023-07-20T11:47:32;42.75;36.00;29.00
65383;PMS5003;51986;52.788;41.368;2023-07-20T11:50:02;40.00;33.50;27.00
65383;PMS5003;51986;52.788;41.368;2023-07-20T11:52:30;39.00;33.00;27.00
65383;PMS5003;51986;52.788;41.368;2023-07-20T11:54:58;38.00;33.00;26.00
65383;PMS5003;51986;52.788;41.368;2023-07-20T11:57:26;38.00;33.00;26.50
65383;PMS5003;51986;52.788;41.368;2023-07-20T11:59:53;38.00;33.00;26.00
65383;PMS5003;51986;52.788;41.368;2023-07-20T12:02:21;38.00;32.00;26.00
65383;PMS5003;51986;52.788;41.368;2023-07-20T12:04:48;37.00;32.00;26.00
65383;PMS5003;51986;52.788;41.368;2023-07-20T12:07:15;38.25;32.25;26.00
65383;PMS5003;51986;52.788;41.368;2023-07-20T12:09:42;39.00;33.00;27.00
65383;PMS5003;51986;52.788;41.368;2023-07-20T12:12:18;38.25;33.00;27.00
65383;PMS5003;51986;52.788;41.368;2023-07-20T12:14:48;39.00;33.00;27.00
65383;PMS5003;51986;52.788;41.368;2023-07-20T12:17:15;39.50;33.00;26.75
65383;PMS5003;51986;52.788;41.368;2023-07-20T12:19:43;39.00;33.00;27.00
65383;PMS5003;51986;52.788;41.368;2023-07-20T12:22:10;39.00;33.00;27.00
65383;PMS5003;51986;52.788;41.368;2023-07-20T12:24:37;41.00;35.00;28.00
65383;PMS5003;51986;52.788;41.368;2023-07-20T12:27:04;39.25;33.00;27.75
65383;PMS5003;51986;52.788;41.368;2023-07-20T12:29:32;40.00;34.00;28.00
65383;PMS5003;51986;52.788;41.368;2023-07-20T12:31:58;39.00;33.00;27.00
65383;PMS5003;51986;52.788;41.368;2023-07-20T12:34:29;39.50;33.50;26.50
65383;PMS5003;51986;52.788;41.368;2023-07-20T12:36:59;41.00;35.00;28.00
65383;PMS5003;51986;52.788;41.368;2023-07-20T12:39:29;38.25;32.00;26.00
65383;PMS5003;51986;52.788;41.368;2023-07-20T12:41:57;41.25;36.00;29.00
65383;PMS5003;51986;52.788;41.368;2023-07-20T12:44:27;39.00;33.00;27.00
65383;PMS5003;51986;52.788;41.368;2023-07-20T12:46:54;42.00;36.00;29.00
65383;PMS5003;51986;52.788;41.368;2023-07-20T12:49:21;39.00;33.00;27.00
65383;PMS5003;51986;52.788;41.368;2023-07-20T12:51:48;39.00;33.00;27.00
65383;PMS5003;51986;52.788;41.368;2023-07-20T12:54:15;39.50;33.00;27.00
65383;PMS5003;51986;52.788;41.368;2023-07-20T12:56:42;41.00;36.00;28.00
65383;PMS5003;51986;52.788;41.368;2023-07-20T12:59:12;39.00;33.00;27.00
65383;PMS5003;51986;52.788;41.368;2023-07-20T13:01:39;42.00;36.00;28.00
65383;PMS5003;51986;52.788;41.368;2023-07-20T13:04:06;38.00;32.50;26.00
65383;PMS5003;51986;52.788;41.368;2023-07-20T13:06:36;39.00;33.00;27.00
65383;PMS5003;51986;52.788;41.368;2023-07-20T13:09:03;42.00;35.00;29.00
65383;PMS5003;51986;52.788;41.368;2023-07-20T13:11:30;39.00;33.00;27.00
65383;PMS5003;51986;52.788;41.368;2023-07-20T13:13:57;41.25;36.00;29.00
65383;PMS5003;51986;52.788;41.368;2023-07-20T13:16:24;38.00;32.00;26.00
65383;PMS5003;51986;52.788;41.368;2023-07-20T13:18:51;38.00;33.00;26.50
65383;PMS5003;51986;52.788;41.368;2023-07-20T13:21:18;40.25;34.50;28.00
65383;PMS5003;51986;52.788;41.368;2023-07-20T13:23:45;39.00;33.00;27.00
65383;PMS5003;51986;52.788;41.368;2023-07-20T13:26:12;42.00;36.00;29.00
65383;PMS5003;51986;52.788;41.368;2023-07-20T13:28:39;38.00;32.00;26.00
65383;PMS5003;51986;52.788;41.368;2023-07-20T13:31:07;38.50;33.00;27.00
65383;PMS5003;51986;52.788;41.368;2023-07-20T13:33:37;42.00;35.00;28.00
65383;PMS5003;51986;52.788;41.368;2023-07-20T13:36:05;38.00;32.00;26.00
65383;PMS5003;51986;52.788;41.368;2023-07-20T13:38:34;38.00;32.00;25.50
65383;PMS5003;51986;52.788;41.368;2023-07-20T13:41:01;37.75;32.75;27.00
65383;PMS5003;51986;52.788;41.368;2023-07-20T13:43:28;40.00;34.00;28.00
65383;PMS5003;51986;52.788;41.368;2023-07-20T13:45:55;42.25;35.00;29.00
65383;PMS5003;51986;52.788;41.368;2023-07-20T13:48:22;38.00;33.00;27.00
65383;PMS5003;51986;52.788;41.368;2023-07-20T13:50:53;40.00;35.00;28.00
65383;PMS5003;51986;52.788;41.368;2023-07-20T13:53:23;39.00;34.00;27.00
65383;PMS5003;51986;52.788;41.368;2023-07-20T13:55:53;39.50;33.00;26.50
65383;PMS5003;51986;52.788;41.368;2023-07-20T13:58:23;37.50;31.50;25.00